createdAt,value
2023-01-27T00:01:14.759Z,1.90
2023-01-27T00:03:41.286Z,1.84
2023-01-27T00:06:11.946Z,1.92
2023-01-27T00:08:38.508Z,1.87
2023-01-27T00:11:23.831Z,1.86
2023-01-27T00:13:50.326Z,1.89
2023-01-27T00:16:16.906Z,1.81
2023-01-27T00:18:43.541Z,1.85
2023-01-27T00:21:28.742Z,1.81
2023-01-27T00:24:13.643Z,1.87
2023-01-27T00:26:40.248Z,1.94
2023-01-27T00:29:06.768Z,1.91
2023-01-27T00:31:51.930Z,1.84
2023-01-27T00:34:19.115Z,1.85
2023-01-27T00:36:45.569Z,1.92
2023-01-27T00:39:12.393Z,2.33
2023-01-27T00:41:39.605Z,1.92
2023-01-27T00:44:06.691Z,1.75
2023-01-27T00:46:33.436Z,1.70
2023-01-27T00:49:00.928Z,1.90
2023-01-27T00:51:27.382Z,1.89
2023-01-27T00:53:54.176Z,1.85
2023-01-27T00:56:20.737Z,1.71
2023-01-27T00:58:47.425Z,1.71
2023-01-27T01:01:15.675Z,1.63
2023-01-27T01:03:42.387Z,1.33
2023-01-27T01:06:09.803Z,1.42
2023-01-27T01:08:36.932Z,1.54
2023-01-27T01:11:04.463Z,1.49
2023-01-27T01:13:30.926Z,1.50
2023-01-27T01:15:57.485Z,1.65
2023-01-27T01:18:24.365Z,1.50
2023-01-27T01:20:50.831Z,1.44
2023-01-27T01:23:17.391Z,1.42
2023-01-27T01:25:51.808Z,1.29
2023-01-27T01:28:18.286Z,1.48
2023-01-27T01:30:44.789Z,1.54
2023-01-27T01:33:11.448Z,1.50
2023-01-27T01:35:38.552Z,1.93
2023-01-27T01:38:05.460Z,1.61
2023-01-27T01:40:32.441Z,1.64
2023-01-27T01:43:00.181Z,1.88
2023-01-27T01:45:32.678Z,1.81
2023-01-27T01:48:06.889Z,1.91
2023-01-27T01:50:36.187Z,1.83
2023-01-27T01:53:04.100Z,1.72
2023-01-27T01:55:32.756Z,1.75
2023-01-27T01:57:59.243Z,1.80
2023-01-27T02:00:25.721Z,1.74
2023-01-27T02:02:52.512Z,1.65
2023-01-27T02:05:30.068Z,1.61
2023-01-27T02:08:15.396Z,1.50
2023-01-27T02:10:44.039Z,1.38
2023-01-27T02:13:10.467Z,1.45
2023-01-27T02:15:37.400Z,1.38
2023-01-27T02:18:04.470Z,1.34
2023-01-27T02:20:35.875Z,1.20
2023-01-27T02:23:21.107Z,1.33
2023-01-27T02:25:47.624Z,1.36
2023-01-27T02:28:14.341Z,1.07
2023-01-27T02:30:40.875Z,1.25
2023-01-27T02:33:14.320Z,1.26
2023-01-27T02:35:51.959Z,1.48
2023-01-27T02:38:19.600Z,1.73
2023-01-27T02:40:49.394Z,1.60
2023-01-27T02:43:15.844Z,1.57
2023-01-27T02:45:42.446Z,1.60
2023-01-27T02:48:08.930Z,1.47
2023-01-27T02:50:35.576Z,1.43
2023-01-27T02:53:02.610Z,1.35
2023-01-27T02:55:29.076Z,1.37
2023-01-27T02:57:56.103Z,1.37
2023-01-27T03:00:39.031Z,1.15
2023-01-27T03:03:05.536Z,1.36
2023-01-27T03:05:32.733Z,1.56
2023-01-27T03:07:59.204Z,1.50
2023-01-27T03:10:25.656Z,1.52
2023-01-27T03:12:52.152Z,1.39
2023-01-27T03:15:37.257Z,1.31
2023-01-27T03:18:15.679Z,1.46
2023-01-27T03:20:43.170Z,1.36
2023-01-27T03:23:10.421Z,1.26
2023-01-27T03:25:41.011Z,1.44
2023-01-27T03:28:07.508Z,1.64
2023-01-27T03:30:44.166Z,1.52
2023-01-27T03:33:18.705Z,1.38
2023-01-27T03:36:06.426Z,1.16
2023-01-27T03:38:53.893Z,1.21
2023-01-27T03:41:38.947Z,1.24
2023-01-27T03:44:24.115Z,1.28
2023-01-27T03:46:50.569Z,1.11
2023-01-27T03:49:17.039Z,1.22
2023-01-27T03:51:43.497Z,0.98
2023-01-27T03:54:09.951Z,1.04
2023-01-27T03:56:36.386Z,1.28
2023-01-27T03:59:02.874Z,1.21
2023-01-27T04:01:29.513Z,1.24
2023-01-27T04:04:14.419Z,1.37
2023-01-27T04:07:17.375Z,1.11
2023-01-27T04:09:43.861Z,0.98
2023-01-27T04:12:10.324Z,1.15
2023-01-27T04:14:37.959Z,1.33
2023-01-27T04:17:12.463Z,1.34
2023-01-27T04:19:38.980Z,1.66
2023-01-27T04:22:06.402Z,1.47
2023-01-27T04:24:33.242Z,1.40
2023-01-27T04:27:01.081Z,1.22
2023-01-27T04:29:29.239Z,1.14
2023-01-27T04:31:57.721Z,1.01
2023-01-27T04:34:24.917Z,1.04
2023-01-27T04:36:52.247Z,1.08
2023-01-27T04:39:19.062Z,1.12
2023-01-27T04:41:45.885Z,1.04
2023-01-27T04:44:12.824Z,0.94
2023-01-27T04:46:39.459Z,1.00
2023-01-27T04:49:06.081Z,0.77
2023-01-27T04:51:33.063Z,0.79
2023-01-27T04:53:59.755Z,1.03
2023-01-27T04:56:26.249Z,1.09
2023-01-27T04:58:53.173Z,1.24
2023-01-27T05:01:19.711Z,1.27
2023-01-27T05:03:46.228Z,1.43
2023-01-27T05:06:13.157Z,1.47
2023-01-27T05:08:39.940Z,1.43
2023-01-27T05:11:06.841Z,1.27
2023-01-27T05:13:33.579Z,1.17
2023-01-27T05:16:04.239Z,1.11
2023-01-27T05:18:30.731Z,1.03
2023-01-27T05:21:01.445Z,1.01
2023-01-27T05:23:37.343Z,1.11
2023-01-27T05:26:08.434Z,0.98
2023-01-27T05:28:35.550Z,0.99
2023-01-27T05:31:02.941Z,0.85
2023-01-27T05:33:29.753Z,0.83
2023-01-27T05:35:58.302Z,0.90
2023-01-27T05:38:24.713Z,0.99
2023-01-27T05:40:54.581Z,0.95
2023-01-27T05:43:21.054Z,0.75
2023-01-27T05:45:47.468Z,0.85
2023-01-27T05:48:13.989Z,1.10
2023-01-27T05:50:40.433Z,1.15
2023-01-27T05:53:06.894Z,0.98
2023-01-27T05:55:33.310Z,0.95
2023-01-27T05:57:59.771Z,1.05
2023-01-27T06:00:26.188Z,0.92
2023-01-27T06:02:52.681Z,0.86
2023-01-27T06:05:19.211Z,1.09
2023-01-27T06:07:45.669Z,0.99
2023-01-27T06:10:12.147Z,0.98
2023-01-27T06:12:38.621Z,1.03
2023-01-27T06:15:05.240Z,1.17
2023-01-27T06:17:31.672Z,1.13
2023-01-27T06:19:58.103Z,1.20
2023-01-27T06:22:24.559Z,1.11
2023-01-27T06:24:50.975Z,1.09
2023-01-27T06:27:17.443Z,1.04
2023-01-27T06:29:44.019Z,1.19
2023-01-27T06:32:10.551Z,0.95
2023-01-27T06:34:37.000Z,1.22
2023-01-27T06:37:03.411Z,1.21
2023-01-27T06:39:29.861Z,0.98
2023-01-27T06:41:56.291Z,0.97
2023-01-27T06:44:22.760Z,1.01
2023-01-27T06:46:49.547Z,1.04
2023-01-27T06:49:16.325Z,0.85
2023-01-27T06:51:42.830Z,0.85
2023-01-27T06:54:10.015Z,0.94
2023-01-27T06:56:36.576Z,0.88
2023-01-27T06:59:03.326Z,0.96
2023-01-27T07:01:29.830Z,1.26
2023-01-27T07:03:56.420Z,1.23
2023-01-27T07:06:22.914Z,1.20
2023-01-27T07:08:50.986Z,1.31
2023-01-27T07:11:17.509Z,1.14
2023-01-27T07:13:43.960Z,1.14
2023-01-27T07:16:10.443Z,1.07
2023-01-27T07:18:37.032Z,1.07
2023-01-27T07:21:04.958Z,1.06
2023-01-27T07:23:31.405Z,1.18
2023-01-27T07:26:00.062Z,1.14
2023-01-27T07:28:27.315Z,1.22
2023-01-27T07:30:53.774Z,1.17
2023-01-27T07:33:20.257Z,1.17
2023-01-27T07:35:48.427Z,1.20
2023-01-27T07:38:15.162Z,1.18
2023-01-27T07:40:41.589Z,1.38
2023-01-27T07:43:08.063Z,1.32
2023-01-27T07:45:35.022Z,1.18
2023-01-27T07:48:01.888Z,1.33
2023-01-27T07:50:28.833Z,1.26
2023-01-27T07:52:57.908Z,1.47
2023-01-27T07:55:24.334Z,1.28
2023-01-27T07:57:53.219Z,1.34
2023-01-27T08:00:21.705Z,1.19
2023-01-27T08:02:52.090Z,1.47
2023-01-27T08:05:18.747Z,1.60
2023-01-27T08:07:45.179Z,1.38
2023-01-27T08:10:12.119Z,1.41
2023-01-27T08:12:38.871Z,1.42
2023-01-27T08:15:05.978Z,1.47
2023-01-27T08:17:32.442Z,1.72
2023-01-27T08:19:58.861Z,1.38
2023-01-27T08:22:25.286Z,1.63
2023-01-27T08:24:51.713Z,1.66
2023-01-27T08:27:18.129Z,1.59
2023-01-27T08:29:44.602Z,1.56
2023-01-27T08:32:12.421Z,1.59
2023-01-27T08:34:40.882Z,2.47
2023-01-27T08:37:07.327Z,2.25
2023-01-27T08:39:33.923Z,1.55
2023-01-27T08:42:00.536Z,1.49
2023-01-27T08:44:28.315Z,1.46
2023-01-27T08:46:55.389Z,1.56
2023-01-27T08:49:21.827Z,1.28
2023-01-27T08:51:48.298Z,1.39
2023-01-27T08:54:14.762Z,1.60
2023-01-27T08:56:41.203Z,1.26
2023-01-27T08:59:07.616Z,1.37
2023-01-27T09:01:34.050Z,1.23
2023-01-27T09:04:00.510Z,1.25
2023-01-27T09:06:27.110Z,1.09
2023-01-27T09:09:12.521Z,1.46
2023-01-27T09:11:43.219Z,1.51
2023-01-27T09:14:10.139Z,1.38
2023-01-27T09:16:36.990Z,1.36
2023-01-27T09:19:04.208Z,1.95
2023-01-27T09:21:30.637Z,2.20
2023-01-27T09:23:58.054Z,1.82
2023-01-27T09:26:24.506Z,1.68
2023-01-27T09:28:50.938Z,1.14
2023-01-27T09:31:17.428Z,1.53
2023-01-27T09:33:44.020Z,1.72
2023-01-27T09:36:11.833Z,1.57
2023-01-27T09:38:40.423Z,1.70
2023-01-27T09:41:45.424Z,1.67
2023-01-27T09:44:17.931Z,1.69
2023-01-27T09:47:01.897Z,1.74
2023-01-27T09:49:40.444Z,1.38
2023-01-27T09:52:17.389Z,1.97
2023-01-27T09:54:43.788Z,1.57
2023-01-27T09:57:45.521Z,1.59
2023-01-27T10:00:20.642Z,1.43
2023-01-27T10:03:05.746Z,1.44
2023-01-27T10:05:35.070Z,1.64
2023-01-27T10:08:13.286Z,1.87
2023-01-27T10:10:39.718Z,1.66
2023-01-27T10:13:15.460Z,1.76
2023-01-27T10:15:48.094Z,1.85
2023-01-27T10:18:33.058Z,1.73
2023-01-27T10:21:03.829Z,2.11
2023-01-27T10:23:30.804Z,2.38
2023-01-27T10:26:13.673Z,2.12
2023-01-27T10:28:47.964Z,2.45
2023-01-27T10:31:21.092Z,2.57
2023-01-27T10:33:55.172Z,2.65
2023-01-27T10:36:28.833Z,2.86
2023-01-27T10:39:03.456Z,3.38
2023-01-27T10:41:42.552Z,2.84
2023-01-27T10:44:22.826Z,2.81
2023-01-27T10:46:49.387Z,2.78
2023-01-27T10:49:23.998Z,2.72
2023-01-27T10:51:56.773Z,3.14
2023-01-27T10:54:41.999Z,3.49
2023-01-27T10:57:22.467Z,3.57
2023-01-27T11:00:29.578Z,3.84
2023-01-27T11:02:56.738Z,3.33
2023-01-27T11:05:33.340Z,3.34
2023-01-27T11:08:06.523Z,3.44
2023-01-27T11:10:35.769Z,2.85
2023-01-27T11:13:03.507Z,2.62
2023-01-27T11:15:33.085Z,2.72
2023-01-27T11:18:03.708Z,2.69
2023-01-27T11:20:39.605Z,3.05
2023-01-27T11:23:14.835Z,3.16
2023-01-27T11:25:44.688Z,3.23
2023-01-27T11:28:17.426Z,2.93
2023-01-27T11:30:49.898Z,3.03
2023-01-27T11:33:25.911Z,3.09
2023-01-27T11:35:53.126Z,2.87
2023-01-27T11:38:21.895Z,2.73
2023-01-27T11:40:51.106Z,2.67
2023-01-27T11:43:19.726Z,2.48
2023-01-27T11:45:47.026Z,2.56
2023-01-27T11:48:16.415Z,2.42
2023-01-27T11:50:43.992Z,2.04
2023-01-27T11:53:16.511Z,2.07
2023-01-27T11:55:45.763Z,1.97
2023-01-27T11:58:24.561Z,2.19
2023-01-27T12:00:59.737Z,2.51
2023-01-27T12:03:43.080Z,2.84
2023-01-27T12:06:29.801Z,2.35
2023-01-27T12:08:56.313Z,2.38
2023-01-27T12:11:22.778Z,2.18
2023-01-27T12:13:59.186Z,2.32
2023-01-27T12:16:45.978Z,2.24
2023-01-27T12:19:18.241Z,2.28
2023-01-27T12:21:49.957Z,2.30
2023-01-27T12:24:22.076Z,2.43
2023-01-27T12:26:51.334Z,2.30
2023-01-27T12:29:24.117Z,2.31
2023-01-27T12:31:51.428Z,2.73
2023-01-27T12:34:21.007Z,2.60
2023-01-27T12:36:48.054Z,2.51
2023-01-27T12:39:26.360Z,2.26
2023-01-27T12:41:52.787Z,2.31
2023-01-27T12:44:22.432Z,2.50
2023-01-27T12:46:55.177Z,2.00
2023-01-27T12:49:22.572Z,2.50
2023-01-27T12:51:54.388Z,2.31
2023-01-27T12:54:25.294Z,2.27
2023-01-27T12:56:53.178Z,2.77
2023-01-27T12:59:21.497Z,2.50
2023-01-27T13:02:00.562Z,2.40
2023-01-27T13:04:27.911Z,2.45
2023-01-27T13:06:56.420Z,2.42
2023-01-27T13:09:41.631Z,2.40
2023-01-27T13:12:20.631Z,2.34
2023-01-27T13:14:50.714Z,2.32
2023-01-27T13:17:35.895Z,2.45
2023-01-27T13:20:16.531Z,2.49
2023-01-27T13:23:15.567Z,2.34
2023-01-27T13:25:44.745Z,2.39
2023-01-27T13:28:15.352Z,2.24
2023-01-27T13:30:44.363Z,2.24
2023-01-27T13:33:23.515Z,2.39
2023-01-27T13:36:01.527Z,2.40
2023-01-27T13:38:37.754Z,2.29
2023-01-27T13:41:10.139Z,2.80
2023-01-27T13:43:41.421Z,2.71
2023-01-27T13:46:27.043Z,2.56
2023-01-27T13:49:03.958Z,2.34
2023-01-27T13:51:31.083Z,2.24
2023-01-27T13:54:07.292Z,2.30
2023-01-27T13:56:43.295Z,2.70
2023-01-27T13:59:25.022Z,2.70
2023-01-27T14:02:09.820Z,2.48
2023-01-27T14:04:43.535Z,2.32
2023-01-27T14:07:13.080Z,2.43
2023-01-27T14:09:54.176Z,2.27
2023-01-27T14:12:22.391Z,2.18
2023-01-27T14:15:07.470Z,2.07
2023-01-27T14:17:42.114Z,2.37
2023-01-27T14:20:17.987Z,2.53
2023-01-27T14:22:44.593Z,2.33
2023-01-27T14:25:37.891Z,2.53
2023-01-27T14:28:08.259Z,2.98
2023-01-27T14:30:42.879Z,2.63
2023-01-27T14:33:19.188Z,2.07
2023-01-27T14:35:54.771Z,2.42
2023-01-27T14:38:21.219Z,2.52
2023-01-27T14:40:53.458Z,2.51
2023-01-27T14:43:26.783Z,2.51
2023-01-27T14:45:53.213Z,2.55
2023-01-27T14:48:19.738Z,2.31
2023-01-27T14:50:52.293Z,1.86
2023-01-27T14:53:21.793Z,2.08
2023-01-27T14:56:11.926Z,2.15
2023-01-27T14:58:38.439Z,1.70
2023-01-27T15:01:14.375Z,1.54
2023-01-27T15:04:05.311Z,1.68
2023-01-27T15:06:40.113Z,1.98
2023-01-27T15:09:13.472Z,2.01
2023-01-27T15:12:00.757Z,1.60
2023-01-27T15:14:46.223Z,1.94
2023-01-27T15:17:15.733Z,1.93
2023-01-27T15:20:00.861Z,2.09
2023-01-27T15:22:33.251Z,1.78
2023-01-27T15:25:19.899Z,1.49
2023-01-27T15:27:47.290Z,1.20
2023-01-27T15:30:25.407Z,1.16
2023-01-27T15:32:52.474Z,0.89
2023-01-27T15:35:24.719Z,0.82
2023-01-27T15:38:08.471Z,0.66
2023-01-27T15:40:53.773Z,0.63
2023-01-27T15:43:23.313Z,0.47
2023-01-27T15:45:54.300Z,0.52
2023-01-27T15:48:31.988Z,0.30
2023-01-27T15:51:04.122Z,0.25
2023-01-27T15:53:36.144Z,0.50
2023-01-27T15:56:03.547Z,0.40
2023-01-27T15:58:33.307Z,0.62
2023-01-27T16:01:00.690Z,0.51
2023-01-27T16:03:29.819Z,0.60
2023-01-27T16:06:02.720Z,0.34
2023-01-27T16:08:37.425Z,0.23
2023-01-27T16:11:21.575Z,0.35
2023-01-27T16:13:48.408Z,0.38
2023-01-27T16:16:17.659Z,0.17
2023-01-27T16:18:47.082Z,0.08
2023-01-27T16:21:32.047Z,0.07
2023-01-27T16:24:01.615Z,0.07
2023-01-27T16:26:40.273Z,-0.06
2023-01-27T16:29:16.083Z,-0.06
2023-01-27T16:31:44.134Z,0.30
2023-01-27T16:34:17.568Z,0.17
2023-01-27T16:36:44.068Z,0.04
2023-01-27T16:39:30.629Z,-0.09
2023-01-27T16:41:58.629Z,-0.09
2023-01-27T16:44:29.347Z,-0.12
2023-01-27T16:47:00.193Z,0.08
2023-01-27T16:49:30.102Z,0.04
2023-01-27T16:51:58.111Z,0.20
2023-01-27T16:54:44.241Z,-0.02
2023-01-27T16:57:27.623Z,-0.13
2023-01-27T16:59:55.652Z,0.07
2023-01-27T17:02:23.835Z,0.09
2023-01-27T17:04:55.642Z,0.14
2023-01-27T17:07:22.491Z,0.30
2023-01-27T17:09:53.270Z,0.31
2023-01-27T17:12:34.091Z,0.36
2023-01-27T17:15:01.853Z,0.36
2023-01-27T17:17:32.050Z,0.41
2023-01-27T17:20:03.755Z,0.40
2023-01-27T17:22:38.850Z,0.28
2023-01-27T17:25:10.687Z,0.31
2023-01-27T17:27:38.410Z,0.08
2023-01-27T17:30:08.353Z,0.00
2023-01-27T17:32:37.627Z,0.25
2023-01-27T17:35:20.377Z,0.25
2023-01-27T17:37:46.900Z,0.24
2023-01-27T17:40:14.936Z,0.32
2023-01-27T17:42:42.569Z,0.31
2023-01-27T17:45:28.726Z,0.13
2023-01-27T17:47:59.431Z,0.07
2023-01-27T17:50:30.661Z,0.36
2023-01-27T17:52:57.345Z,0.39
2023-01-27T17:55:24.707Z,0.27
2023-01-27T17:58:01.515Z,0.11
2023-01-27T18:00:30.075Z,0.14
2023-01-27T18:02:56.532Z,0.05
2023-01-27T18:05:28.511Z,0.11
2023-01-27T18:07:55.022Z,0.24
2023-01-27T18:10:23.238Z,0.05
2023-01-27T18:12:49.984Z,0.04
2023-01-27T18:15:32.309Z,-0.04
2023-01-27T18:18:00.461Z,0.14
2023-01-27T18:20:31.104Z,0.14
2023-01-27T18:22:57.726Z,0.13
2023-01-27T18:25:24.483Z,0.19
2023-01-27T18:27:53.191Z,0.30
2023-01-27T18:30:20.583Z,0.43
2023-01-27T18:32:49.115Z,0.25
2023-01-27T18:35:27.462Z,0.21
2023-01-27T18:38:00.004Z,0.38
2023-01-27T18:40:28.723Z,0.45
2023-01-27T18:42:56.061Z,0.18
2023-01-27T18:45:23.083Z,0.21
2023-01-27T18:47:49.858Z,0.09
2023-01-27T18:50:23.719Z,0.22
2023-01-27T18:52:50.756Z,0.26
2023-01-27T18:55:27.392Z,0.36
2023-01-27T18:57:55.319Z,0.37
2023-01-27T19:00:23.269Z,0.48
2023-01-27T19:02:51.375Z,0.29
2023-01-27T19:05:22.372Z,0.29
2023-01-27T19:07:49.014Z,0.50
2023-01-27T19:10:20.294Z,0.52
2023-01-27T19:12:46.838Z,0.45
2023-01-27T19:15:14.411Z,0.44
2023-01-27T19:17:41.634Z,0.56
2023-01-27T19:20:15.187Z,0.24
2023-01-27T19:22:41.954Z,0.23
2023-01-27T19:25:08.678Z,0.14
2023-01-27T19:27:36.417Z,0.21
2023-01-27T19:30:19.480Z,0.33
2023-01-27T19:32:45.938Z,0.40
2023-01-27T19:35:13.116Z,0.31
2023-01-27T19:37:39.826Z,0.49
2023-01-27T19:40:16.650Z,0.48
2023-01-27T19:42:43.105Z,0.36
2023-01-27T19:45:10.974Z,0.26
2023-01-27T19:47:37.448Z,0.44
2023-01-27T19:50:05.226Z,0.48
2023-01-27T19:52:31.695Z,0.37
2023-01-27T19:54:58.382Z,1.15
2023-01-27T19:57:24.963Z,0.46
2023-01-27T19:59:52.429Z,0.41
2023-01-27T20:02:18.870Z,0.49
2023-01-27T20:04:45.358Z,0.23
2023-01-27T20:07:12.264Z,0.19
2023-01-27T20:09:38.686Z,0.25
2023-01-27T20:12:05.438Z,0.17
2023-01-27T20:14:31.890Z,0.06
2023-01-27T20:16:58.632Z,0.27
2023-01-27T20:19:25.131Z,0.57
2023-01-27T20:21:53.984Z,0.35
2023-01-27T20:24:20.585Z,0.35
2023-01-27T20:26:47.137Z,0.43
2023-01-27T20:29:14.078Z,0.30
2023-01-27T20:31:40.654Z,0.22
2023-01-27T20:34:07.132Z,0.38
2023-01-27T20:36:33.899Z,0.31
2023-01-27T20:39:00.384Z,0.06
2023-01-27T20:41:26.853Z,0.04
2023-01-27T20:43:57.877Z,0.02
2023-01-27T20:46:24.687Z,-0.17
2023-01-27T20:48:51.143Z,-0.25
2023-01-27T20:51:17.606Z,-0.32
2023-01-27T20:53:47.094Z,-0.12
2023-01-27T20:56:17.779Z,-0.20
2023-01-27T20:58:44.446Z,-0.26
2023-01-27T21:01:12.377Z,-0.31
2023-01-27T21:03:39.955Z,-0.04
2023-01-27T21:06:07.916Z,0.15
2023-01-27T21:08:34.584Z,0.09
2023-01-27T21:11:01.970Z,-0.01
2023-01-27T21:13:28.758Z,-0.08
2023-01-27T21:15:56.522Z,-0.03
2023-01-27T21:18:23.346Z,0.05
2023-01-27T21:20:51.035Z,-0.14
2023-01-27T21:23:20.458Z,-0.05
2023-01-27T21:25:46.892Z,-0.13
2023-01-27T21:28:13.314Z,-0.16
2023-01-27T21:30:39.786Z,-0.07
2023-01-27T21:33:06.243Z,-0.06
2023-01-27T21:35:32.997Z,-0.10
2023-01-27T21:37:59.422Z,-0.16
2023-01-27T21:40:26.011Z,-0.02
2023-01-27T21:43:11.257Z,-0.22
2023-01-27T21:45:37.681Z,-0.10
2023-01-27T21:48:04.255Z,-0.07
2023-01-27T21:50:30.757Z,-0.11
2023-01-27T21:52:57.181Z,-0.18
2023-01-27T21:55:27.564Z,-0.38
2023-01-27T21:57:54.985Z,-0.31
2023-01-27T22:00:22.943Z,-0.36
2023-01-27T22:02:53.853Z,-0.27
2023-01-27T22:05:20.390Z,-0.14
2023-01-27T22:07:48.194Z,-0.12
2023-01-27T22:10:16.018Z,-0.21
2023-01-27T22:12:42.648Z,-0.21
2023-01-27T22:15:09.988Z,-0.30
2023-01-27T22:17:36.474Z,-0.20
2023-01-27T22:20:03.515Z,0.11
2023-01-27T22:22:29.979Z,-0.23
2023-01-27T22:24:56.415Z,-0.32
2023-01-27T22:27:22.898Z,-0.10
2023-01-27T22:29:49.496Z,-0.20
2023-01-27T22:32:15.973Z,-0.14
2023-01-27T22:34:44.331Z,-0.04
2023-01-27T22:37:10.771Z,-0.09
2023-01-27T22:39:38.215Z,-0.12
2023-01-27T22:42:04.831Z,-0.08
2023-01-27T22:44:31.283Z,-0.36
2023-01-27T22:46:57.710Z,-0.34
2023-01-27T22:49:24.121Z,-0.31
2023-01-27T22:51:50.562Z,-0.40
2023-01-27T22:54:17.048Z,-0.57
2023-01-27T22:56:43.507Z,-0.43
2023-01-27T22:59:13.260Z,-0.46
2023-01-27T23:01:40.066Z,-0.37
2023-01-27T23:04:06.566Z,-0.39
2023-01-27T23:06:33.019Z,-0.47
2023-01-27T23:08:59.436Z,-0.59
2023-01-27T23:11:25.991Z,-0.32
2023-01-27T23:13:52.543Z,-0.26
2023-01-27T23:16:19.084Z,-0.33
2023-01-27T23:18:46.753Z,-0.32
2023-01-27T23:21:14.791Z,-0.42
2023-01-27T23:23:42.480Z,-0.44
2023-01-27T23:26:11.066Z,-0.40
2023-01-27T23:28:38.433Z,-0.42
2023-01-27T23:31:08.102Z,-0.44
2023-01-27T23:33:35.754Z,-0.50
2023-01-27T23:36:02.568Z,-0.42
2023-01-27T23:38:33.388Z,-0.39
2023-01-27T23:41:04.179Z,-0.39
2023-01-27T23:43:33.504Z,-0.37
2023-01-27T23:46:00.356Z,-0.28
2023-01-27T23:48:27.477Z,-0.33
2023-01-27T23:50:54.336Z,-0.38
2023-01-27T23:53:20.844Z,-0.36
2023-01-27T23:55:59.807Z,-0.29
2023-01-27T23:58:27.175Z,-0.17
